Time;durP1;ratioP1;P1;durP2;ratioP2;P2;SDS_P1;SDS_P2;PMS_P1;PMS_P2;Temp;Humidity;BMP_temperature;BMP_pressure;BME280_temperature;BME280_humidity;BME280_pressure;Samples;Min_cycle;Max_cycle;Signal;HPM_P1;HPM_P2
2022/07/01 00:01:27;;;;;;;21.63;12.15;;;;;;;16.56;100.00;101066.72;4958312;28;20047;-72
2022/07/01 00:03:54;;;;;;;22.02;11.35;;;;;;;16.51;100.00;101070.81;4960286;28;20479;-72
2022/07/01 00:06:21;;;;;;;21.52;10.65;;;;;;;16.48;100.00;101068.88;4962004;28;20078;-73
2022/07/01 00:08:48;;;;;;;17.13;6.72;;;;;;;16.38;100.00;101067.06;4956417;28;20055;-72
2022/07/01 00:11:14;;;;;;;23.13;11.07;;;;;;;16.50;100.00;101057.28;4963454;28;20086;-72
2022/07/01 00:13:41;;;;;;;19.80;11.02;;;;;;;16.48;100.00;101045.75;4963214;28;20121;-73
2022/07/01 00:16:08;;;;;;;20.95;11.23;;;;;;;16.54;100.00;101047.59;4960434;28;20105;-72
2022/07/01 00:18:34;;;;;;;21.00;10.60;;;;;;;16.52;100.00;101038.88;4964197;28;20050;-72
2022/07/01 00:21:02;;;;;;;20.50;11.35;;;;;;;16.52;100.00;101041.66;4962749;28;20587;-74
2022/07/01 00:23:29;;;;;;;20.63;10.38;;;;;;;16.56;100.00;101044.38;4958898;28;20047;-74
2022/07/01 00:25:55;;;;;;;19.38;11.27;;;;;;;16.47;100.00;101030.97;4963779;28;20051;-75
2022/07/01 00:28:22;;;;;;;20.75;11.32;;;;;;;16.52;100.00;101036.09;4955632;28;20078;-72
2022/07/01 00:30:49;;;;;;;21.00;10.07;;;;;;;16.59;100.00;101035.94;4963519;28;20070;-72
2022/07/01 00:33:15;;;;;;;19.60;10.50;;;;;;;16.62;100.00;101037.88;4957370;28;20723;-74
2022/07/01 00:35:42;;;;;;;15.23;6.57;;;;;;;16.54;100.00;101044.03;4954544;28;20882;-73
2022/07/01 00:38:08;;;;;;;19.27;10.82;;;;;;;16.47;100.00;101033.00;4956439;28;20100;-72
2022/07/01 00:40:35;;;;;;;13.32;6.45;;;;;;;16.41;100.00;101029.09;4963223;28;20043;-72
2022/07/01 00:43:02;;;;;;;22.23;11.73;;;;;;;16.51;100.00;101039.31;4963041;28;20050;-73
2022/07/01 00:45:29;;;;;;;21.52;11.20;;;;;;;16.49;100.00;101042.53;4963022;28;20062;-73
2022/07/01 00:47:56;;;;;;;20.60;11.95;;;;;;;16.55;100.00;101038.03;4959122;28;20058;-74
2022/07/01 00:50:23;;;;;;;19.88;9.93;;;;;;;16.45;100.00;101027.84;4965519;28;20066;-72
2022/07/01 00:52:50;;;;;;;21.48;11.60;;;;;;;16.50;100.00;101037.75;4965065;28;20058;-73
2022/07/01 00:55:16;;;;;;;21.15;11.85;;;;;;;16.47;100.00;101036.56;4960695;28;20047;-73
2022/07/01 00:57:43;;;;;;;22.05;11.73;;;;;;;16.42;100.00;101031.50;4960373;28;20052;-72
2022/07/01 01:00:13;;;;;;;9.07;4.63;;;;;;;16.36;100.00;101037.97;4963852;28;20054;-72
2022/07/01 01:02:40;;;;;;;21.20;10.40;;;;;;;16.40;100.00;101033.13;4951897;28;20061;-72
2022/07/01 01:05:08;;;;;;;23.98;12.40;;;;;;;16.34;100.00;101051.59;4962865;28;20155;-72
2022/07/01 01:07:35;;;;;;;21.02;10.20;;;;;;;16.25;100.00;101052.16;4964279;28;20050;-72
2022/07/01 01:10:03;;;;;;;26.58;13.40;;;;;;;16.33;100.00;101061.19;4959668;28;20133;-73
2022/07/01 01:12:30;;;;;;;25.88;13.68;;;;;;;16.41;100.00;101062.63;4958889;28;20543;-74
2022/07/01 01:14:57;;;;;;;24.55;12.05;;;;;;;16.18;100.00;101071.03;4959542;28;20077;-73
2022/07/01 01:17:24;;;;;;;19.25;7.38;;;;;;;16.19;100.00;101073.38;4961777;28;20055;-72
2022/07/01 01:19:51;;;;;;;25.27;10.68;;;;;;;16.21;100.00;101070.16;4961199;28;20121;-72
2022/07/01 01:22:18;;;;;;;17.92;7.50;;;;;;;16.13;100.00;101074.31;4964080;28;20051;-72
2022/07/01 01:24:47;;;;;;;33.88;15.45;;;;;;;16.25;100.00;101084.84;4957538;28;20063;-73
2022/07/01 01:27:16;;;;;;;30.23;15.23;;;;;;;16.32;100.00;101084.72;4962680;28;20716;-72
2022/07/01 01:29:43;;;;;;;29.45;13.18;;;;;;;16.20;100.00;101080.53;4963011;28;20655;-73
2022/07/01 01:32:10;;;;;;;33.75;16.40;;;;;;;16.26;100.00;101089.25;4961656;28;20057;-73
2022/07/01 01:34:38;;;;;;;30.98;14.13;;;;;;;16.24;100.00;101074.91;4959962;28;20081;-72
2022/07/01 01:37:08;;;;;;;30.17;14.70;;;;;;;16.28;100.00;101095.97;4968312;28;20058;-73
2022/07/01 01:39:37;;;;;;;31.48;15.13;;;;;;;16.28;100.00;101092.38;4960818;28;20057;-72
2022/07/01 01:42:06;;;;;;;34.75;16.73;;;;;;;16.20;100.00;101100.09;4968946;28;20137;-73
2022/07/01 01:44:33;;;;;;;25.60;12.45;;;;;;;16.23;100.00;101113.19;4959599;28;20066;-72
2022/07/01 01:47:01;;;;;;;35.28;17.85;;;;;;;16.23;100.00;101107.63;4956211;28;20139;-73
2022/07/01 01:49:28;;;;;;;31.60;15.00;;;;;;;16.19;100.00;101118.06;4961019;28;20078;-74
2022/07/01 01:51:57;;;;;;;35.65;15.80;;;;;;;16.16;100.00;101113.31;4964217;28;20518;-71
2022/07/01 01:54:24;;;;;;;20.40;8.00;;;;;;;16.10;100.00;101109.44;4958343;28;20057;-74
2022/07/01 01:56:51;;;;;;;38.83;20.73;;;;;;;16.23;100.00;101104.06;4968955;28;20636;-72
2022/07/01 01:59:18;;;;;;;40.15;22.08;;;;;;;16.20;100.00;101100.09;4963921;28;20055;-74
2022/07/01 02:01:44;;;;;;;37.05;15.52;;;;;;;16.16;100.00;101104.94;4958474;28;20369;-71
2022/07/01 02:04:11;;;;;;;39.65;18.35;;;;;;;16.18;100.00;101105.31;4968922;28;20047;-72
2022/07/01 02:06:40;;;;;;;43.42;21.92;;;;;;;16.20;100.00;101108.47;4966068;28;20089;-74
2022/07/01 02:09:08;;;;;;;45.88;23.20;;;;;;;16.24;100.00;101108.41;4968325;28;20081;-70
2022/07/01 02:11:35;;;;;;;30.50;13.38;;;;;;;16.15;100.00;101111.75;4966146;28;20162;-73
2022/07/01 02:14:01;;;;;;;22.48;5.47;;;;;;;16.14;100.00;101120.56;4965229;28;20133;-72
2022/07/01 02:16:28;;;;;;;41.72;20.88;;;;;;;16.22;100.00;101127.59;4957262;28;20127;-74
2022/07/01 02:18:54;;;;;;;27.35;11.27;;;;;;;16.15;100.00;101133.28;4960192;28;20055;-72
2022/07/01 02:21:21;;;;;;;26.23;10.75;;;;;;;16.03;100.00;101129.09;4964451;28;20182;-71
2022/07/01 02:23:48;;;;;;;28.60;14.50;;;;;;;16.12;100.00;101129.34;4968734;28;20052;-72
2022/07/01 02:26:14;;;;;;;36.70;20.45;;;;;;;16.13;100.00;101121.78;4958864;28;20084;-73
2022/07/01 02:28:41;;;;;;;33.40;17.67;;;;;;;16.08;100.00;101131.41;4964578;28;20054;-72
2022/07/01 02:31:07;;;;;;;37.35;21.15;;;;;;;16.12;100.00;101131.34;4967866;28;20078;-72
2022/07/01 02:33:34;;;;;;;31.48;14.93;;;;;;;16.02;100.00;101135.09;4965897;28;20059;-72
2022/07/01 02:36:01;;;;;;;32.88;15.63;;;;;;;15.97;100.00;101143.97;4966086;28;20142;-74
2022/07/01 02:38:27;;;;;;;22.08;9.68;;;;;;;15.96;100.00;101148.00;4967283;28;20097;-71
2022/07/01 02:40:54;;;;;;;38.45;19.88;;;;;;;16.08;100.00;101150.97;4966661;28;20058;-72
2022/07/01 02:43:20;;;;;;;32.58;16.20;;;;;;;16.03;100.00;101142.28;4957683;28;20134;-71
2022/07/01 02:45:47;;;;;;;22.90;11.23;;;;;;;15.99;100.00;101147.13;4959918;28;20051;-73
2022/07/01 02:48:13;;;;;;;8.23;2.75;;;;;;;15.92;100.00;101148.03;4970393;28;20057;-73
2022/07/01 02:50:40;;;;;;;19.73;9.27;;;;;;;15.89;100.00;101148.88;4964851;28;20134;-74
2022/07/01 02:53:06;;;;;;;19.35;7.88;;;;;;;15.80;100.00;101150.63;4966432;28;20081;-71
2022/07/01 02:55:33;;;;;;;28.40;14.38;;;;;;;15.89;100.00;101162.81;4964181;28;20536;-71
2022/07/01 02:58:00;;;;;;;26.42;12.02;;;;;;;15.86;100.00;101162.91;4961443;28;20082;-73
2022/07/01 03:00:26;;;;;;;26.63;13.57;;;;;;;15.98;100.00;101167.88;4967964;28;20755;-72
2022/07/01 03:02:53;;;;;;;24.48;11.18;;;;;;;15.89;100.00;101170.44;4967245;28;20060;-73
2022/07/01 03:05:20;;;;;;;24.48;12.45;;;;;;;15.91;100.00;101166.00;4958571;28;20567;-73
2022/07/01 03:07:46;;;;;;;24.10;11.63;;;;;;;15.89;100.00;101168.41;4959946;28;20727;-72
2022/07/01 03:10:13;;;;;;;23.15;10.50;;;;;;;15.92;100.00;101180.72;4956605;28;20146;-73
2022/07/01 03:12:40;;;;;;;27.98;11.70;;;;;;;15.93;100.00;101183.09;4964547;28;20559;-73
2022/07/01 03:15:09;;;;;;;24.63;11.82;;;;;;;15.97;100.00;101183.84;4959540;28;20522;-71
2022/07/01 03:17:39;;;;;;;23.48;10.40;;;;;;;15.97;100.00;101195.00;4965317;28;20054;-72
2022/07/01 03:20:08;;;;;;;25.30;12.45;;;;;;;16.03;100.00;101210.03;4958507;28;20050;-72
2022/07/01 03:22:35;;;;;;;22.42;10.85;;;;;;;15.93;100.00;101213.78;4966880;28;20496;-71
2022/07/01 03:25:03;;;;;;;28.23;11.98;;;;;;;15.92;100.00;101228.16;4960776;28;20648;-72
2022/07/01 03:27:30;;;;;;;12.52;4.90;;;;;;;15.90;100.00;101225.03;4967276;28;20618;-71
2022/07/01 03:29:57;;;;;;;23.00;10.10;;;;;;;15.90;100.00;101220.25;4962259;28;20051;-71
2022/07/01 03:32:24;;;;;;;23.90;9.65;;;;;;;15.94;100.00;101218.19;4958270;28;20113;-72
2022/07/01 03:34:52;;;;;;;6.10;2.47;;;;;;;15.87;100.00;101228.66;4964208;28;20118;-71
2022/07/01 03:37:20;;;;;;;24.27;10.45;;;;;;;15.89;100.00;101226.25;4959596;28;20079;-72
2022/07/01 03:39:47;;;;;;;8.48;4.00;;;;;;;15.82;100.00;101229.13;4955542;28;20078;-74
2022/07/01 03:42:14;;;;;;;14.70;5.18;;;;;;;15.80;100.00;101231.53;4964267;28;20573;-73
2022/07/01 03:44:41;;;;;;;27.05;12.05;;;;;;;15.85;100.00;101217.09;4962711;28;20043;-71
2022/07/01 03:47:07;;;;;;;9.80;3.88;;;;;;;15.78;100.00;101225.59;4967416;28;20061;-74
2022/07/01 03:49:35;;;;;;;23.13;10.93;;;;;;;15.81;100.00;101213.59;4965972;28;20054;-73
2022/07/01 03:52:05;;;;;;;18.60;7.10;;;;;;;15.81;100.00;101219.16;4961756;28;20146;-72
2022/07/01 03:54:38;;;;;;;14.25;4.93;;;;;;;15.74;100.00;101230.44;4961439;28;20077;-72
2022/07/01 03:57:08;;;;;;;24.60;10.95;;;;;;;15.85;100.00;101225.47;4965082;28;20142;-73
2022/07/01 03:59:40;;;;;;;22.05;9.25;;;;;;;15.82;100.00;101235.47;4967076;28;20078;-71
2022/07/01 04:02:07;;;;;;;13.02;5.50;;;;;;;15.73;100.00;101224.06;4959440;28;20106;-71
2022/07/01 04:04:35;;;;;;;22.63;9.63;;;;;;;15.87;100.00;101223.06;4960942;28;20158;-71
2022/07/01 04:07:05;;;;;;;22.75;10.48;;;;;;;15.92;100.00;101223.38;4959866;28;20085;-71
2022/07/01 04:09:32;;;;;;;22.65;10.00;;;;;;;15.89;100.00;101209.50;4966658;28;20146;-71
2022/07/01 04:11:59;;;;;;;19.50;8.75;;;;;;;15.87;100.00;101212.69;4959677;28;20416;-73
2022/07/01 04:14:26;;;;;;;6.25;2.38;;;;;;;15.81;100.00;101216.38;4963398;28;20755;-75
2022/07/01 04:16:53;;;;;;;23.42;11.00;;;;;;;15.83;100.00;101206.38;4962200;28;20640;-72
2022/07/01 04:19:20;;;;;;;24.88;12.00;;;;;;;15.95;100.00;101214.16;4962002;28;20047;-71
2022/07/01 04:24:33;;;;;;;21.13;11.52;;;;;;;15.93;100.00;101213.78;4956419;28;20154;-72
2022/07/01 04:27:00;;;;;;;8.63;4.07;;;;;;;15.85;100.00;101206.75;4960762;28;20137;-72
2022/07/01 04:29:29;;;;;;;25.13;11.27;;;;;;;15.88;100.00;101196.72;4962933;28;20073;-71
2022/07/01 04:31:57;;;;;;;28.05;13.70;;;;;;;15.90;100.00;101199.91;4958754;28;20058;-73
2022/07/01 04:34:24;;;;;;;24.95;11.88;;;;;;;15.90;100.00;101202.69;4963576;28;20720;-72
2022/07/01 04:36:51;;;;;;;28.48;13.35;;;;;;;15.89;100.00;101207.47;4963793;28;20697;-71
2022/07/01 04:39:18;;;;;;;22.20;10.13;;;;;;;15.88;100.00;101207.91;4965325;28;20054;-71
2022/07/01 04:42:00;;;;;;;29.70;16.35;;;;;;;15.93;100.00;101211.00;4953663;28;20117;-71
2022/07/01 04:44:31;;;;;;;28.90;13.23;;;;;;;15.98;100.00;101206.94;4957503;28;20038;-73
2022/07/01 04:46:59;;;;;;;25.77;13.98;;;;;;;16.09;100.00;101207.56;4967021;28;20082;-72
2022/07/01 04:49:27;;;;;;;23.70;13.40;;;;;;;16.08;100.00;101209.59;4966345;28;20045;-72
2022/07/01 04:51:54;;;;;;;25.02;14.68;;;;;;;16.08;100.00;101206.78;4964992;28;20063;-73
2022/07/01 04:54:21;;;;;;;16.42;7.88;;;;;;;15.97;100.00;101220.13;4962428;28;20097;-71
2022/07/01 04:56:47;;;;;;;22.92;10.82;;;;;;;16.01;100.00;101218.06;4964973;28;20057;-72
2022/07/01 04:59:15;;;;;;;10.82;4.75;;;;;;;15.98;100.00;101223.69;4959736;28;20055;-72
2022/07/01 05:01:43;;;;;;;24.67;11.10;;;;;;;16.02;100.00;101235.59;4964025;28;20057;-66
2022/07/01 05:04:11;;;;;;;19.00;6.60;;;;;;;16.00;100.00;101238.78;4963850;28;20522;-71
2022/07/01 05:06:38;;;;;;;20.98;11.90;;;;;;;16.07;100.00;101229.53;4967592;28;20070;-70
2022/07/01 05:09:05;;;;;;;28.98;13.20;;;;;;;16.12;100.00;101224.28;4964918;28;20051;-69
2022/07/01 05:11:31;;;;;;;24.70;13.82;;;;;;;16.17;100.00;101220.22;4971485;28;20113;-70
2022/07/01 05:13:58;;;;;;;27.38;14.93;;;;;;;16.21;100.00;101223.72;4969346;28;20387;-70
2022/07/01 05:16:25;;;;;;;25.77;14.60;;;;;;;16.17;100.00;101220.22;4971058;28;20050;-69
2022/07/01 05:24:23;;;;;;;26.83;15.30;;;;;;;16.21;100.00;101205.00;4974159;28;20939;-69
2022/07/01 05:26:50;;;;;;;26.40;13.40;;;;;;;16.21;100.00;101204.19;4977712;28;20085;-69
2022/07/01 05:29:17;;;;;;;28.00;12.60;;;;;;;16.25;100.00;101216.09;4968935;28;20051;-69
2022/07/01 05:31:43;;;;;;;26.10;13.80;;;;;;;16.24;100.00;101209.72;4970856;28;20173;-70
2022/07/01 05:34:10;;;;;;;25.80;12.00;;;;;;;16.28;100.00;101201.28;4969988;28;20130;-73
2022/07/01 05:36:36;;;;;;;24.33;14.43;;;;;;;16.34;100.00;101200.38;4971613;28;20146;-69
2022/07/01 05:39:03;;;;;;;23.63;12.07;;;;;;;16.26;100.00;101190.53;4963893;28;20725;-69
2022/07/01 05:41:30;;;;;;;28.50;13.85;;;;;;;16.29;100.00;101195.28;4965066;28;20047;-69
2022/07/01 05:43:56;;;;;;;21.65;10.90;;;;;;;16.21;100.00;101190.22;4968841;28;20078;-69
2022/07/01 05:46:23;;;;;;;26.98;14.80;;;;;;;16.35;100.00;101193.56;4969083;28;20057;-69
2022/07/01 05:48:49;;;;;;;22.75;13.50;;;;;;;16.43;100.00;101183.88;4969403;28;20058;-69
2022/07/01 05:51:16;;;;;;;25.45;12.23;;;;;;;16.46;100.00;101201.78;4967807;28;20093;-66
2022/07/01 05:53:43;;;;;;;26.38;10.85;;;;;;;16.47;100.00;101214.56;4965843;28;20091;-69
2022/07/01 05:56:10;;;;;;;23.42;11.80;;;;;;;16.49;100.00;101214.91;4962851;28;20408;-67
2022/07/01 05:58:36;;;;;;;22.65;13.13;;;;;;;16.60;100.00;101218.31;4965473;28;20137;-69
2022/07/01 06:01:03;;;;;;;20.38;9.68;;;;;;;16.57;100.00;101228.31;4966930;28;20051;-70
2022/07/01 06:03:35;;;;;;;21.33;11.65;;;;;;;16.59;100.00;101230.69;4968902;28;20085;-68
2022/07/01 06:06:02;;;;;;;6.10;3.00;;;;;;;16.42;100.00;101232.59;4965037;28;20043;-69
2022/07/01 06:08:28;;;;;;;22.27;11.18;;;;;;;16.52;100.00;101231.63;4963495;28;20092;-68
2022/07/01 06:10:55;;;;;;;8.20;3.85;;;;;;;16.37;100.00;101235.03;4960912;28;20083;-70
2022/07/01 06:13:22;;;;;;;15.02;5.13;;;;;;;16.32;100.00;101233.53;4956256;28;20055;-67
2022/07/01 06:15:48;;;;;;;17.50;9.15;;;;;;;16.39;100.00;101244.56;4964066;28;20074;-71
2022/07/01 06:18:15;;;;;;;18.30;9.23;;;;;;;16.37;100.00;101237.84;4965709;28;20400;-74
2022/07/01 06:20:42;;;;;;;10.52;4.57;;;;;;;16.35;100.00;101254.22;4962024;28;20395;-72
2022/07/01 06:23:08;;;;;;;23.00;11.75;;;;;;;16.52;100.00;101258.75;4962729;28;20046;-71
2022/07/01 06:25:35;;;;;;;20.23;11.43;;;;;;;16.49;100.00;101265.97;4965076;28;20086;-71
2022/07/01 06:28:01;;;;;;;14.65;6.00;;;;;;;16.53;100.00;101280.69;4963286;28;20051;-73
2022/07/01 06:30:28;;;;;;;10.75;5.10;;;;;;;16.48;100.00;101291.53;4967112;28;20070;-70
2022/07/01 06:32:55;;;;;;;19.55;11.30;;;;;;;16.58;100.00;101285.00;4963320;28;20072;-70
2022/07/01 06:35:21;;;;;;;23.38;13.57;;;;;;;16.68;100.00;101276.44;4968448;28;20047;-71
2022/07/01 06:37:48;;;;;;;28.27;15.52;;;;;;;16.71;100.00;101269.97;4968317;28;20135;-72
2022/07/01 06:40:21;;;;;;;27.52;15.07;;;;;;;16.69;100.00;101278.00;4969173;28;20050;-71
2022/07/01 06:42:49;;;;;;;26.67;14.23;;;;;;;16.78;100.00;101264.25;4959925;28;20134;-73
2022/07/01 06:45:16;;;;;;;24.83;15.30;;;;;;;16.91;100.00;101250.50;4968301;28;20043;-72
2022/07/01 06:47:43;;;;;;;29.15;16.10;;;;;;;16.99;100.00;101274.28;4967015;28;20047;-71
2022/07/01 06:50:09;;;;;;;23.75;13.25;;;;;;;16.95;100.00;101267.97;4964603;28;20043;-72
2022/07/01 06:52:36;;;;;;;27.48;14.27;;;;;;;17.09;100.00;101276.88;4967760;28;20049;-71
2022/07/01 06:55:02;;;;;;;28.77;16.58;;;;;;;17.30;100.00;101275.69;4963157;28;20047;-73
2022/07/01 06:57:29;;;;;;;25.38;12.13;;;;;;;17.35;100.00;101289.19;4958875;28;20135;-71
2022/07/01 06:59:56;;;;;;;22.83;13.75;;;;;;;17.41;100.00;101290.22;4962103;28;20073;-72
2022/07/01 07:02:22;;;;;;;26.23;13.95;;;;;;;17.50;100.00;101293.28;4965839;28;20555;-72
2022/07/01 07:04:57;;;;;;;23.70;14.55;;;;;;;17.69;100.00;101304.47;4960592;28;20431;-73
2022/07/01 07:07:27;;;;;;;19.23;10.40;;;;;;;17.71;100.00;101310.44;4964314;28;20047;-72
2022/07/01 07:09:53;;;;;;;9.40;4.88;;;;;;;17.54;100.00;101319.97;4966751;28;20050;-71
2022/07/01 07:12:20;;;;;;;18.45;9.88;;;;;;;17.45;100.00;101307.78;4964815;28;20122;-70
2022/07/01 07:14:46;;;;;;;15.30;7.07;;;;;;;17.48;100.00;101313.31;4967217;28;20149;-71
2022/07/01 07:17:13;;;;;;;18.38;10.38;;;;;;;17.46;100.00;101312.97;4967529;28;20089;-70
2022/07/01 07:19:40;;;;;;;22.98;11.00;;;;;;;17.49;100.00;101312.06;4964458;28;20047;-70
2022/07/01 07:22:06;;;;;;;13.43;6.50;;;;;;;17.41;100.00;101304.22;4967892;28;20050;-70
2022/07/01 07:24:33;;;;;;;13.68;6.90;;;;;;;17.49;100.00;101308.50;4965567;28;20062;-71
2022/07/01 07:27:00;;;;;;;15.52;6.97;;;;;;;17.67;100.00;101314.53;4964838;28;20054;-70
2022/07/01 07:29:26;;;;;;;20.17;9.35;;;;;;;17.75;100.00;101313.16;4967830;28;20113;-71
2022/07/01 07:31:53;;;;;;;8.45;3.92;;;;;;;17.77;100.00;101322.72;4966314;28;20150;-67
2022/07/01 07:34:19;;;;;;;6.15;2.97;;;;;;;17.78;100.00;101320.69;4964631;28;20050;-68
2022/07/01 07:36:46;;;;;;;9.93;4.13;;;;;;;17.91;100.00;101324.41;4961224;28;20054;-68
2022/07/01 07:39:12;;;;;;;13.27;5.10;;;;;;;17.91;100.00;101310.41;4965801;28;20502;-69
2022/07/01 07:41:39;;;;;;;8.00;3.78;;;;;;;17.97;100.00;101305.88;4964103;28;20082;-69
2022/07/01 07:44:06;;;;;;;24.45;10.38;;;;;;;18.20;100.00;101296.56;4961037;28;20511;-71
2022/07/01 07:46:32;;;;;;;12.30;6.55;;;;;;;18.20;100.00;101299.38;4971593;28;20717;-73
2022/07/01 07:48:59;;;;;;;14.63;7.32;;;;;;;18.14;100.00;101307.50;4962762;28;20075;-70
2022/07/01 07:51:26;;;;;;;23.67;14.90;;;;;;;18.40;100.00;101303.72;4963305;28;20567;-71
2022/07/01 07:53:52;;;;;;;23.35;15.20;;;;;;;18.51;100.00;101304.25;4963507;28;21837;-72
2022/07/01 07:56:20;;;;;;;20.17;11.98;;;;;;;18.33;100.00;101319.88;4966456;28;20133;-71
2022/07/01 07:58:47;;;;;;;21.55;14.65;;;;;;;18.25;100.00;101324.06;4966900;28;20104;-72
2022/07/01 08:01:13;;;;;;;27.35;16.75;;;;;;;18.35;100.00;101329.41;4962826;28;20392;-71
2022/07/01 08:03:40;;;;;;;25.15;16.80;;;;;;;18.48;100.00;101327.53;4966586;28;20093;-72
2022/07/01 08:06:06;;;;;;;24.15;13.70;;;;;;;18.54;100.00;101336.22;4961093;28;20079;-72
2022/07/01 08:08:33;;;;;;;26.27;13.93;;;;;;;18.43;100.00;101347.69;4960848;28;20066;-71
2022/07/01 08:11:00;;;;;;;20.23;9.98;;;;;;;18.46;100.00;101341.19;4961478;28;20134;-71
2022/07/01 08:13:27;;;;;;;16.38;7.80;;;;;;;18.42;100.00;101346.09;4954379;28;20051;-72
2022/07/01 08:15:53;;;;;;;11.30;5.63;;;;;;;18.46;100.00;101334.81;4958153;28;20464;-71
2022/07/01 08:18:20;;;;;;;10.30;6.45;;;;;;;18.37;100.00;101327.00;4953794;28;20086;-70
2022/07/01 08:20:46;;;;;;;25.92;14.77;;;;;;;18.65;100.00;101331.13;4958749;28;20591;-71
2022/07/01 08:23:13;;;;;;;23.63;14.85;;;;;;;18.86;100.00;101330.63;4964700;28;20078;-70
2022/07/01 08:25:40;;;;;;;21.60;11.98;;;;;;;18.77;100.00;101344.44;4966205;28;20130;-71
2022/07/01 08:28:07;;;;;;;23.17;12.40;;;;;;;18.93;100.00;101341.66;4963312;28;20053;-69
2022/07/01 08:30:33;;;;;;;26.25;14.75;;;;;;;18.97;100.00;101348.72;4964516;28;20050;-69
2022/07/01 08:33:00;;;;;;;21.05;13.63;;;;;;;18.95;100.00;101342.78;4959479;28;20042;-68
2022/07/01 08:35:27;;;;;;;23.98;13.75;;;;;;;18.95;100.00;101358.81;4964960;28;20141;-69
2022/07/01 08:37:54;;;;;;;28.27;14.32;;;;;;;18.99;100.00;101370.72;4967821;28;20401;-68
2022/07/01 08:40:25;;;;;;;19.80;12.27;;;;;;;18.75;100.00;101375.72;4963265;28;20168;-71
2022/07/01 08:42:58;;;;;;;21.20;13.40;;;;;;;18.68;100.00;101378.72;4965245;28;20082;-70
2022/07/01 08:45:29;;;;;;;10.77;5.95;;;;;;;18.51;100.00;101377.09;4965784;28;20038;-68
2022/07/01 08:48:00;;;;;;;12.10;4.03;;;;;;;18.37;100.00;101388.66;4967159;28;20129;-68
2022/07/01 08:50:29;;;;;;;12.23;6.68;;;;;;;18.36;100.00;101386.28;4963405;28;20492;-73
2022/07/01 08:52:56;;;;;;;11.13;4.82;;;;;;;18.32;100.00;101396.75;4957762;28;20086;-72
2022/07/01 08:55:23;;;;;;;18.55;7.85;;;;;;;18.50;100.00;101403.56;4960750;28;20134;-72
2022/07/01 08:57:52;;;;;;;17.15;9.15;;;;;;;18.64;100.00;101403.22;4960202;28;20472;-74
2022/07/01 09:00:20;;;;;;;16.13;6.30;;;;;;;18.55;100.00;101402.22;4956081;28;20047;-72
2022/07/01 09:02:57;;;;;;;11.27;5.28;;;;;;;18.56;100.00;101407.41;4963675;28;20580;-74
2022/07/01 09:05:25;;;;;;;18.70;7.93;;;;;;;18.84;100.00;101398.34;4959972;28;20071;-73
2022/07/01 09:08:03;;;;;;;14.23;6.88;;;;;;;19.08;99.81;101399.75;4964006;28;20058;-74
2022/07/01 09:10:34;;;;;;;12.43;5.63;;;;;;;19.05;96.27;101397.03;4959411;28;20047;-73
2022/07/01 09:13:07;;;;;;;9.40;4.65;;;;;;;18.98;94.31;101395.19;4964629;28;20055;-74
2022/07/01 09:15:35;;;;;;;11.23;4.53;;;;;;;19.00;96.33;101415.16;4960492;28;20047;-72
2022/07/01 09:18:11;;;;;;;2.55;1.75;;;;;;;18.70;96.41;101407.06;4964824;28;20043;-71
2022/07/01 09:20:47;;;;;;;5.60;1.67;;;;;;;18.62;96.82;101405.66;4962424;28;20488;-68
2022/07/01 09:23:17;;;;;;;13.27;5.65;;;;;;;18.89;97.30;101411.84;4951935;28;20142;-67
2022/07/01 09:25:51;;;;;;;12.32;4.78;;;;;;;18.86;96.72;101409.13;4964231;28;20131;-72
2022/07/01 09:28:24;;;;;;;4.68;2.40;;;;;;;18.77;97.05;101401.31;4956567;28;20047;-72
2022/07/01 09:30:53;;;;;;;9.27;4.97;;;;;;;18.81;98.55;101395.63;4961160;28;20047;-72
2022/07/01 09:33:22;;;;;;;14.05;5.22;;;;;;;18.97;100.00;101393.59;4958735;28;20499;-72
2022/07/01 09:35:49;;;;;;;12.50;4.63;;;;;;;18.95;99.77;101392.47;4960327;28;20039;-72
2022/07/01 09:38:25;;;;;;;12.18;6.00;;;;;;;19.18;100.00;101393.09;4963759;28;20146;-74
2022/07/01 09:41:03;;;;;;;12.68;5.88;;;;;;;19.37;98.44;101383.78;4960381;28;20051;-71
2022/07/01 09:43:35;;;;;;;6.05;2.20;;;;;;;19.33;97.06;101387.91;4963240;28;20074;-70
2022/07/01 09:46:11;;;;;;;10.75;3.97;;;;;;;19.15;96.09;101391.16;4941629;28;20058;-75
2022/07/01 09:48:38;;;;;;;3.92;2.15;;;;;;;19.28;93.22;101382.84;4938594;28;20483;-74
2022/07/01 09:51:08;;;;;;;4.20;2.03;;;;;;;19.42;91.15;101388.88;4940463;28;20407;-76
2022/07/01 09:53:40;;;;;;;0.93;0.93;;;;;;;19.47;86.66;101390.34;4936860;28;20054;-74
2022/07/01 09:56:07;;;;;;;9.07;3.75;;;;;;;19.81;86.61;101391.38;4935133;28;20062;-77
2022/07/01 09:58:35;;;;;;;6.57;3.03;;;;;;;20.12;85.74;101395.31;4940346;28;20055;-76
2022/07/01 10:01:03;;;;;;;2.45;1.20;;;;;;;19.95;78.99;101390.19;4937819;28;20560;-75
2022/07/01 10:03:32;;;;;;;2.83;1.80;;;;;;;19.83;78.84;101400.16;4941471;28;20165;-74
2022/07/01 10:06:42;;;;;;;5.82;2.60;;;;;;;19.96;75.83;101395.38;4938574;28;20197;-75
2022/07/01 10:09:22;;;;;;;4.63;1.42;;;;;;;19.88;72.74;101393.22;4952279;28;20648;-74
2022/07/01 10:12:26;;;;;;;7.43;2.47;;;;;;;20.26;70.61;101388.50;4954258;28;20134;-78
2022/07/01 10:14:54;;;;;;;4.55;2.55;;;;;;;20.29;71.08;101387.59;4947786;28;20058;-75
2022/07/01 10:17:28;;;;;;;6.35;2.38;;;;;;;20.64;71.83;101389.28;4943124;28;20185;-75
2022/07/01 10:19:56;;;;;;;2.58;1.30;;;;;;;20.38;69.87;101394.13;4955468;28;20058;-73
2022/07/01 10:22:28;;;;;;;6.45;2.42;;;;;;;20.38;72.13;101398.19;4947537;28;20082;-76
2022/07/01 10:25:15;;;;;;;4.20;1.27;;;;;;;20.28;71.51;101392.41;4947625;28;20066;-75
2022/07/01 10:27:42;;;;;;;6.20;2.40;;;;;;;20.63;72.65;101406.63;4939235;28;20059;-78
2022/07/01 10:30:13;;;;;;;4.38;2.45;;;;;;;20.61;71.91;101411.91;4940054;28;20234;-75
2022/07/01 10:32:48;;;;;;;4.10;1.98;;;;;;;20.45;68.87;101412.78;4937942;28;20160;-78
2022/07/01 10:35:36;;;;;;;6.45;1.98;;;;;;;20.75;70.21;101422.72;4936962;28;20789;-76
2022/07/01 10:38:03;;;;;;;3.53;2.00;;;;;;;20.53;68.39;101402.91;4938613;28;20129;-76
2022/07/01 10:40:50;;;;;;;3.42;2.00;;;;;;;20.63;67.03;101406.63;4950373;28;20432;-75
2022/07/01 10:43:32;;;;;;;8.63;2.78;;;;;;;21.08;70.36;101401.53;4952500;28;20134;-78
2022/07/01 10:45:59;;;;;;;1.83;1.35;;;;;;;21.00;65.54;101414.28;4948472;28;20122;-76
2022/07/01 10:48:30;;;;;;;4.13;2.55;;;;;;;20.68;64.11;101415.28;4954680;28;20051;-77
2022/07/01 10:50:57;;;;;;;2.13;0.68;;;;;;;20.84;64.68;101414.38;4952516;28;20140;-69
2022/07/01 10:53:24;;;;;;;2.00;1.75;;;;;;;21.20;64.70;101418.44;4955647;28;20054;-71
2022/07/01 10:55:52;;;;;;;3.20;1.63;;;;;;;21.33;59.61;101421.22;4954805;28;20125;-72
2022/07/01 10:58:39;;;;;;;6.30;2.05;;;;;;;21.45;56.20;101415.53;4954185;28;20058;-72
2022/07/01 11:01:05;;;;;;;6.10;2.15;;;;;;;21.79;57.25;101409.91;4951417;28;20050;-69
2022/07/01 11:03:39;;;;;;;5.90;2.20;;;;;;;21.86;57.28;101420.13;4946504;28;20055;-70
2022/07/01 11:06:06;;;;;;;7.25;2.08;;;;;;;21.85;56.39;101405.28;4946603;28;20062;-70
2022/07/01 11:08:33;;;;;;;7.15;2.45;;;;;;;22.21;57.50;101399.09;4943389;28;20050;-71
2022/07/01 11:11:04;;;;;;;5.30;1.83;;;;;;;21.91;55.23;101411.88;4946539;28;20046;-70
2022/07/01 11:13:34;;;;;;;2.65;1.55;;;;;;;21.69;56.88;101410.25;4948192;28;20043;-70
2022/07/01 11:16:01;;;;;;;2.85;1.15;;;;;;;21.39;56.42;101413.78;4944518;28;20084;-73
2022/07/01 11:18:29;;;;;;;7.10;1.85;;;;;;;22.03;59.08;101401.78;4958281;28;20055;-74
2022/07/01 11:21:07;;;;;;;0.50;0.50;;;;;;;21.71;52.94;101407.78;4949555;28;20746;-76